Time;durP1;ratioP1;P1;durP2;ratioP2;P2;SDS_P1;SDS_P2;PMS_P1;PMS_P2;Temp;Humidity;BMP_temperature;BMP_pressure;BME280_temperature;BME280_humidity;BME280_pressure;Samples;Min_cycle;Max_cycle;Signal;HPM_P1;HPM_P2
2022/05/17 00:00:51;;;;;;;10.93;3.00;;;;;;;14.94;100.00;101948.28;5041516;28;20061;-62
2022/05/17 00:03:17;;;;;;;4.78;2.30;;;;;;;14.95;100.00;101949.16;5063347;28;20072;-64
2022/05/17 00:05:44;;;;;;;8.40;2.70;;;;;;;14.93;100.00;101943.91;5032795;28;20052;-63
2022/05/17 00:08:10;;;;;;;7.80;2.90;;;;;;;14.93;100.00;101940.38;5034034;28;20029;-63
2022/05/17 00:10:36;;;;;;;7.50;2.53;;;;;;;14.92;100.00;101952.81;5045695;28;20025;-63
2022/05/17 00:13:03;;;;;;;8.70;2.17;;;;;;;14.89;100.00;101943.16;5033480;28;20094;-64
2022/05/17 00:15:29;;;;;;;7.68;2.33;;;;;;;14.88;100.00;101951.25;5034162;28;20025;-63
2022/05/17 00:17:55;;;;;;;7.63;2.30;;;;;;;14.88;100.00;101948.56;5031418;28;20033;-63
2022/05/17 00:20:22;;;;;;;7.05;2.30;;;;;;;14.88;100.00;101956.56;5039495;28;20028;-64
2022/05/17 00:22:48;;;;;;;9.02;2.58;;;;;;;14.86;100.00;101958.44;5037156;28;20043;-61
2022/05/17 00:25:16;;;;;;;5.55;2.20;;;;;;;14.83;100.00;101953.25;5034095;28;20614;-62
2022/05/17 00:27:42;;;;;;;10.65;2.88;;;;;;;14.82;100.00;101947.06;5033432;28;20033;-62
2022/05/17 00:30:08;;;;;;;4.32;2.30;;;;;;;14.83;100.00;101950.59;5050728;28;20545;-64
2022/05/17 00:32:34;;;;;;;5.60;2.20;;;;;;;14.84;100.00;101947.00;5044172;28;20017;-61
2022/05/17 00:34:59;;;;;;;8.52;2.80;;;;;;;14.82;100.00;101943.50;5049764;28;20387;-62
2022/05/17 00:37:25;;;;;;;7.22;2.67;;;;;;;14.83;100.00;101939.91;5041298;28;20289;-62
2022/05/17 00:39:50;;;;;;;5.60;2.40;;;;;;;14.82;100.00;101939.06;5045408;28;20373;-62
2022/05/17 00:42:16;;;;;;;5.88;2.40;;;;;;;14.85;100.00;101946.06;5036514;28;20038;-63
2022/05/17 00:44:45;;;;;;;6.18;2.40;;;;;;;14.86;100.00;101950.44;5038492;28;20120;-62
2022/05/17 00:47:19;;;;;;;8.80;2.80;;;;;;;14.84;100.00;101950.50;5033229;28;20036;-63
2022/05/17 00:49:58;;;;;;;8.45;2.67;;;;;;;14.87;100.00;101952.16;5047188;28;20028;-63
2022/05/17 00:52:33;;;;;;;7.00;2.65;;;;;;;14.90;100.00;101960.03;5032955;28;20025;-63
2022/05/17 00:55:23;;;;;;;5.55;2.10;;;;;;;14.89;100.00;101961.84;5037391;28;20036;-62
2022/05/17 00:58:16;;;;;;;9.15;2.58;;;;;;;14.90;100.00;101957.38;5032533;28;20032;-63
2022/05/17 01:00:50;;;;;;;6.20;2.40;;;;;;;14.90;100.00;101960.91;5035432;28;20468;-63
2022/05/17 01:03:20;;;;;;;6.30;2.45;;;;;;;14.91;100.00;101956.41;5044641;28;20025;-62
2022/05/17 01:05:50;;;;;;;7.03;2.40;;;;;;;14.91;100.00;101959.09;5043288;28;20037;-63
2022/05/17 01:08:17;;;;;;;6.55;2.75;;;;;;;14.91;100.00;101962.63;5030715;28;20397;-63
2022/05/17 01:10:43;;;;;;;6.38;2.60;;;;;;;14.90;100.00;101963.56;5032167;28;20025;-63
2022/05/17 01:15:52;;;;;;;5.93;2.40;;;;;;;14.89;100.00;101947.66;5036169;28;20052;-63
2022/05/17 01:18:18;;;;;;;7.78;2.47;;;;;;;14.89;100.00;101959.16;5040229;28;20115;-63
2022/05/17 01:20:45;;;;;;;8.65;2.70;;;;;;;14.90;100.00;101955.56;5039582;28;20047;-63
2022/05/17 01:23:11;;;;;;;6.35;2.40;;;;;;;14.88;100.00;101959.25;5052368;28;20427;-63
2022/05/17 01:25:36;;;;;;;9.15;2.53;;;;;;;14.88;100.00;101957.44;5021106;28;20044;-63
2022/05/17 01:28:08;;;;;;;9.15;2.45;;;;;;;14.85;100.00;101959.38;5032699;28;20496;-63
2022/05/17 01:30:33;;;;;;;5.70;2.55;;;;;;;14.84;100.00;101954.97;5032990;28;20040;-63
2022/05/17 01:32:59;;;;;;;6.18;2.67;;;;;;;14.81;100.00;101960.44;5046859;28;20033;-63
2022/05/17 01:35:24;;;;;;;6.32;2.60;;;;;;;14.81;100.00;101965.78;5046023;28;20112;-63
2022/05/17 01:37:55;;;;;;;6.53;2.40;;;;;;;14.78;100.00;101964.09;5031291;28;20101;-63
2022/05/17 01:40:22;;;;;;;6.60;2.60;;;;;;;14.74;100.00;101963.41;5052805;28;20032;-62
2022/05/17 01:42:47;;;;;;;6.68;2.38;;;;;;;14.70;100.00;101967.13;5048520;28;20057;-62
2022/05/17 01:45:13;;;;;;;6.65;2.30;;;;;;;14.68;100.00;101963.66;5046579;28;20029;-62
2022/05/17 01:47:38;;;;;;;13.23;3.25;;;;;;;14.65;100.00;101960.28;5036145;28;20037;-63
2022/05/17 01:50:08;;;;;;;7.13;2.40;;;;;;;14.63;100.00;101948.75;5041764;28;20107;-63
2022/05/17 01:52:33;;;;;;;5.53;2.50;;;;;;;14.61;100.00;101948.00;5033334;28;20032;-63
2022/05/17 01:54:59;;;;;;;6.10;2.33;;;;;;;14.59;100.00;101953.34;5036086;28;20082;-64
2022/05/17 01:57:24;;;;;;;7.38;2.53;;;;;;;14.58;100.00;101951.66;5041039;28;21316;-61
2022/05/17 01:59:49;;;;;;;9.02;2.80;;;;;;;14.54;100.00;101956.25;5040571;28;20878;-63
2022/05/17 02:02:15;;;;;;;7.60;2.72;;;;;;;14.52;100.00;101954.59;5036797;28;20048;-62
2022/05/17 02:04:42;;;;;;;6.93;2.67;;;;;;;14.47;100.00;101957.44;5034037;28;20032;-63
2022/05/17 02:07:07;;;;;;;5.50;2.50;;;;;;;14.44;100.00;101949.59;5041558;28;20055;-63
2022/05/17 02:09:32;;;;;;;7.90;2.47;;;;;;;14.45;100.00;101954.00;5040086;28;20572;-62
2022/05/17 02:11:58;;;;;;;7.18;2.58;;;;;;;14.48;100.00;101958.31;5029985;28;20041;-62
2022/05/17 02:14:24;;;;;;;8.35;2.60;;;;;;;14.47;100.00;101957.44;5032521;28;20028;-62
2022/05/17 02:16:49;;;;;;;6.85;2.67;;;;;;;14.50;100.00;101967.09;5034089;28;20041;-62
2022/05/17 02:19:19;;;;;;;9.93;2.83;;;;;;;14.50;100.00;101964.44;5031082;28;20025;-62
2022/05/17 02:21:45;;;;;;;7.45;2.70;;;;;;;14.55;100.00;101965.97;5047480;28;20025;-63
2022/05/17 02:24:11;;;;;;;8.15;3.10;;;;;;;14.61;100.00;101967.50;5042227;28;20115;-63
2022/05/17 02:26:37;;;;;;;8.02;2.80;;;;;;;14.62;100.00;101969.25;5038905;28;20112;-61
2022/05/17 02:29:03;;;;;;;7.35;2.55;;;;;;;14.63;100.00;101962.97;5030137;28;20439;-62
2022/05/17 02:31:29;;;;;;;8.85;2.67;;;;;;;14.63;100.00;101973.66;5031882;28;20029;-62
2022/05/17 02:33:55;;;;;;;6.65;2.30;;;;;;;14.59;100.00;101967.56;5029677;28;20038;-63
2022/05/17 02:36:21;;;;;;;7.38;2.72;;;;;;;14.54;100.00;101966.03;5035545;28;20492;-62
2022/05/17 02:38:46;;;;;;;4.60;2.40;;;;;;;14.45;100.00;101969.97;5034654;28;20033;-62
2022/05/17 02:41:12;;;;;;;5.40;2.40;;;;;;;14.39;100.00;101970.25;5030415;28;20488;-62
2022/05/17 02:43:38;;;;;;;6.57;2.80;;;;;;;14.30;100.00;101971.50;5034743;28;20056;-62
2022/05/17 02:46:04;;;;;;;7.72;2.80;;;;;;;14.25;100.00;101962.84;5041950;28;20041;-63
2022/05/17 02:48:29;;;;;;;7.13;2.67;;;;;;;14.22;100.00;101973.59;5044887;28;20507;-63
2022/05/17 02:50:55;;;;;;;6.50;2.97;;;;;;;14.17;100.00;101972.94;5031327;28;20053;-63
2022/05/17 02:53:21;;;;;;;7.80;2.80;;;;;;;14.12;100.00;101975.81;5032942;28;20063;-62
2022/05/17 02:55:46;;;;;;;5.57;2.55;;;;;;;14.09;100.00;101975.91;5042245;28;20040;-63
2022/05/17 02:58:12;;;;;;;6.47;3.00;;;;;;;14.08;100.00;101988.38;5043947;28;20025;-63
2022/05/17 03:00:37;;;;;;;6.78;2.90;;;;;;;14.07;100.00;101981.31;5032906;28;20396;-63
2022/05/17 03:03:02;;;;;;;10.45;3.22;;;;;;;14.07;100.00;101975.97;5045206;28;20033;-63
2022/05/17 03:05:28;;;;;;;6.25;2.78;;;;;;;14.05;100.00;101985.84;5045308;28;20033;-62
2022/05/17 03:07:53;;;;;;;6.38;2.67;;;;;;;14.05;100.00;101974.31;5048324;28;20029;-63
2022/05/17 03:10:19;;;;;;;7.05;2.45;;;;;;;14.01;100.00;101983.38;5036120;28;20407;-63
2022/05/17 03:12:45;;;;;;;6.03;2.70;;;;;;;13.96;100.00;101980.88;5042287;28;20025;-64
2022/05/17 03:15:17;;;;;;;5.72;2.65;;;;;;;13.93;100.00;101978.34;5044687;28;20090;-64
2022/05/17 03:17:42;;;;;;;7.60;2.70;;;;;;;13.93;100.00;101973.03;5048251;28;20488;-64
2022/05/17 03:20:08;;;;;;;6.93;3.00;;;;;;;13.95;100.00;101976.47;5044298;28;20037;-64
2022/05/17 03:22:33;;;;;;;5.68;3.20;;;;;;;14.03;100.00;101976.19;5053030;28;20471;-63
2022/05/17 03:24:58;;;;;;;11.10;3.38;;;;;;;14.18;100.00;101987.97;5047158;28;20025;-64
2022/05/17 03:27:24;;;;;;;7.28;2.90;;;;;;;14.31;100.00;101993.66;5041513;28;20035;-63
2022/05/17 03:29:49;;;;;;;9.75;3.63;;;;;;;14.40;100.00;101995.97;5047815;28;20116;-63
2022/05/17 03:32:15;;;;;;;6.90;3.35;;;;;;;14.46;100.00;101997.47;5053688;28;20052;-63
2022/05/17 03:34:40;;;;;;;7.43;3.00;;;;;;;14.50;100.00;101999.06;5039744;28;20036;-63
2022/05/17 03:37:06;;;;;;;5.88;3.05;;;;;;;14.57;100.00;101992.56;5042938;28;20029;-64
2022/05/17 03:39:31;;;;;;;11.15;3.20;;;;;;;14.64;100.00;102001.16;5053047;28;20115;-64
2022/05/17 03:41:56;;;;;;;10.65;3.40;;;;;;;14.71;100.00;102008.00;5037198;28;20030;-64
2022/05/17 03:44:22;;;;;;;6.25;3.13;;;;;;;14.78;100.00;102003.25;5047034;28;20705;-63
2022/05/17 03:46:47;;;;;;;10.40;3.78;;;;;;;14.79;100.00;102003.19;5048221;28;20102;-63
2022/05/17 03:49:13;;;;;;;9.23;3.42;;;;;;;14.82;100.00;102016.41;5035235;28;20024;-63
2022/05/17 03:51:38;;;;;;;8.35;3.25;;;;;;;14.86;100.00;102011.75;5054529;28;20032;-63
2022/05/17 03:54:04;;;;;;;10.30;3.60;;;;;;;14.90;100.00;102011.56;5053743;28;20041;-63
2022/05/17 03:56:29;;;;;;;8.65;3.13;;;;;;;14.99;100.00;102014.78;5053765;28;20024;-62
2022/05/17 03:58:55;;;;;;;9.15;3.28;;;;;;;15.07;100.00;102012.63;5047739;28;20396;-63
2022/05/17 04:01:20;;;;;;;7.50;3.15;;;;;;;15.10;100.00;102020.47;5052872;28;20033;-63
2022/05/17 04:03:45;;;;;;;7.53;3.08;;;;;;;15.16;100.00;102020.19;5054686;28;20119;-62
2022/05/17 04:06:11;;;;;;;7.53;3.53;;;;;;;15.20;100.00;102024.47;5053510;28;20033;-62
2022/05/17 04:08:37;;;;;;;7.03;3.55;;;;;;;15.24;100.00;102027.84;5054335;28;20036;-63
2022/05/17 04:11:11;;;;;;;9.02;3.78;;;;;;;15.28;100.00;102021.47;5054500;28;20063;-63
2022/05/17 04:13:36;;;;;;;7.47;3.40;;;;;;;15.28;100.00;102023.25;5053903;28;20032;-63
2022/05/17 04:16:02;;;;;;;8.18;3.20;;;;;;;15.29;100.00;102020.50;5054610;28;20399;-63
2022/05/17 04:18:28;;;;;;;9.23;3.50;;;;;;;15.33;100.00;102023.91;5053165;28;20171;-63
2022/05/17 04:21:01;;;;;;;8.32;3.17;;;;;;;15.35;100.00;102032.72;5053990;28;20031;-63
2022/05/17 04:23:27;;;;;;;9.10;3.25;;;;;;;15.38;100.00;102028.13;5052698;28;20504;-63
2022/05/17 04:25:53;;;;;;;6.28;3.13;;;;;;;15.36;100.00;102043.31;5053333;28;20029;-64
2022/05/17 04:28:18;;;;;;;6.75;3.20;;;;;;;15.42;100.00;102039.50;5044819;28;20036;-62
2022/05/17 04:30:44;;;;;;;12.48;3.20;;;;;;;15.46;100.00;102027.75;5049361;28;20646;-63
2022/05/17 04:33:10;;;;;;;7.47;3.20;;;;;;;15.51;100.00;102025.75;5053136;28;20036;-63
2022/05/17 04:35:35;;;;;;;8.02;3.38;;;;;;;15.53;100.00;102031.84;5053552;28;20029;-63
2022/05/17 04:38:01;;;;;;;9.55;3.17;;;;;;;15.54;100.00;102030.91;5052565;28;20059;-63
2022/05/17 04:40:27;;;;;;;8.55;3.25;;;;;;;15.62;100.00;102030.56;5053793;28;20036;-63
2022/05/17 04:42:56;;;;;;;7.95;3.10;;;;;;;15.66;100.00;102036.63;5051750;28;20397;-63
2022/05/17 04:45:22;;;;;;;9.90;3.20;;;;;;;15.69;100.00;102033.78;5037246;28;20110;-64
2022/05/17 04:47:47;;;;;;;7.55;3.30;;;;;;;15.74;100.00;102037.13;5049480;28;20065;-63
2022/05/17 04:50:13;;;;;;;6.68;3.17;;;;;;;15.77;100.00;102049.47;5052513;28;20037;-63
2022/05/17 04:52:39;;;;;;;9.50;3.05;;;;;;;15.77;100.00;102036.97;5052239;28;20159;-63
2022/05/17 04:55:06;;;;;;;8.48;3.20;;;;;;;15.80;100.00;102049.31;5050684;28;20032;-64
2022/05/17 04:57:32;;;;;;;9.20;3.05;;;;;;;15.80;100.00;102050.19;5050567;28;20043;-64
2022/05/17 04:59:59;;;;;;;8.40;3.05;;;;;;;15.83;99.59;102044.75;5053348;28;20078;-63
2022/05/17 05:02:25;;;;;;;6.40;3.10;;;;;;;15.85;99.98;102053.53;5051410;28;20025;-64
2022/05/17 05:04:50;;;;;;;8.73;3.33;;;;;;;15.89;98.83;102059.59;5053467;28;20033;-63
2022/05/17 05:07:16;;;;;;;7.28;2.80;;;;;;;15.93;98.97;102066.50;5045282;28;20037;-63
2022/05/17 05:09:41;;;;;;;8.35;3.00;;;;;;;15.87;99.46;102069.50;5033039;28;20036;-63
2022/05/17 05:12:07;;;;;;;7.70;2.78;;;;;;;15.83;99.99;102057.22;5041918;28;20392;-63
2022/05/17 05:14:32;;;;;;;9.20;3.00;;;;;;;15.86;98.88;102060.59;5050529;28;20110;-63
2022/05/17 05:16:58;;;;;;;8.57;2.75;;;;;;;15.84;99.12;102069.63;5040834;28;20025;-63
2022/05/17 05:19:23;;;;;;;7.43;2.72;;;;;;;15.80;98.15;102068.88;5051655;28;20087;-63
2022/05/17 05:21:49;;;;;;;8.93;2.72;;;;;;;15.77;97.56;102057.47;5052996;28;20029;-63
2022/05/17 05:24:14;;;;;;;8.65;2.70;;;;;;;15.72;97.95;102073.72;5052524;28;20037;-63
2022/05/17 05:26:39;;;;;;;8.15;2.50;;;;;;;15.64;96.10;102066.06;5052862;28;20021;-63
2022/05/17 05:29:06;;;;;;;10.15;2.83;;;;;;;15.56;95.47;102066.44;5052979;28;20061;-63
2022/05/17 05:31:31;;;;;;;8.50;2.75;;;;;;;15.51;94.64;102073.78;5051519;28;20040;-63
2022/05/17 05:33:57;;;;;;;9.18;2.60;;;;;;;15.52;95.61;102069.31;5051643;28;20033;-63
2022/05/17 05:36:23;;;;;;;9.10;2.28;;;;;;;15.53;95.01;102071.03;5052649;28;20033;-63
2022/05/17 05:38:49;;;;;;;8.88;2.30;;;;;;;15.56;95.17;102070.88;5052517;28;20507;-63
2022/05/17 05:41:14;;;;;;;9.85;2.75;;;;;;;15.60;95.65;102071.63;5051810;28;20091;-63
2022/05/17 05:43:40;;;;;;;7.57;2.53;;;;;;;15.63;95.31;102071.50;5050767;28;20063;-64
2022/05/17 05:46:06;;;;;;;9.20;2.47;;;;;;;15.64;94.61;102074.09;5049647;28;20437;-63
2022/05/17 05:48:32;;;;;;;7.68;2.17;;;;;;;15.68;94.84;102074.81;5051494;28;20109;-62
2022/05/17 05:50:57;;;;;;;10.63;2.60;;;;;;;15.72;94.67;102071.91;5046643;28;20043;-62
2022/05/17 05:53:23;;;;;;;8.63;2.30;;;;;;;15.70;95.01;102071.13;5050740;28;20028;-62
2022/05/17 05:55:57;;;;;;;10.15;3.15;;;;;;;15.63;96.20;102063.47;5049326;28;20029;-62
2022/05/17 05:58:24;;;;;;;9.95;2.80;;;;;;;15.51;97.39;102060.44;5047222;28;20081;-62
2022/05/17 06:00:49;;;;;;;8.80;2.53;;;;;;;15.50;97.98;102061.38;5046388;28;20032;-62
2022/05/17 06:03:14;;;;;;;8.60;2.47;;;;;;;15.49;97.66;102064.97;5046944;28;20041;-64
2022/05/17 06:05:40;;;;;;;9.88;2.55;;;;;;;15.52;97.79;102061.28;5050306;28;20029;-63
2022/05/17 06:08:05;;;;;;;10.65;2.53;;;;;;;15.60;99.22;102055.59;5049873;28;20365;-62
2022/05/17 06:10:31;;;;;;;11.25;2.42;;;;;;;15.67;99.35;102057.06;5052044;28;20400;-62
2022/05/17 06:12:57;;;;;;;10.93;2.85;;;;;;;15.72;98.42;102050.53;5050332;28;20025;-61
2022/05/17 06:15:22;;;;;;;11.05;3.00;;;;;;;15.76;98.04;102061.97;5051237;28;20031;-60
2022/05/17 06:17:49;;;;;;;11.20;2.75;;;;;;;15.80;98.03;102062.69;5050636;28;20037;-61
2022/05/17 06:20:17;;;;;;;9.90;2.72;;;;;;;15.81;98.90;102072.44;5050466;28;20033;-59
2022/05/17 06:22:42;;;;;;;11.30;2.50;;;;;;;15.85;97.77;102072.22;5051168;28;20108;-63
2022/05/17 06:25:08;;;;;;;11.15;2.67;;;;;;;15.91;97.90;102076.44;5051281;28;20445;-62
2022/05/17 06:27:34;;;;;;;10.63;2.58;;;;;;;16.00;99.02;102075.13;5052099;28;20040;-63
2022/05/17 06:29:59;;;;;;;7.13;2.60;;;;;;;15.99;96.98;102073.38;5049822;28;20036;-62
2022/05/17 06:32:25;;;;;;;11.77;2.70;;;;;;;15.99;97.38;102068.91;5036967;28;20551;-62
2022/05/17 06:34:50;;;;;;;11.50;2.70;;;;;;;16.01;99.05;102075.03;5044380;28;20554;-61
2022/05/17 06:37:16;;;;;;;7.75;2.67;;;;;;;16.01;99.41;102080.41;5047259;28;20029;-61
2022/05/17 06:39:42;;;;;;;9.18;2.60;;;;;;;16.02;98.98;102081.25;5051071;28;20033;-62
2022/05/17 06:42:08;;;;;;;8.35;2.53;;;;;;;15.99;98.70;102068.91;5049667;28;20025;-62
2022/05/17 06:44:38;;;;;;;9.52;2.67;;;;;;;15.98;98.61;102072.50;5043713;28;20551;-61
2022/05/17 06:47:05;;;;;;;7.25;2.65;;;;;;;15.87;98.57;102067.69;5051258;28;20492;-62
2022/05/17 06:49:31;;;;;;;7.43;2.92;;;;;;;15.94;99.00;102060.25;5029586;28;20037;-62
2022/05/17 06:52:01;;;;;;;9.35;2.78;;;;;;;15.91;98.27;102056.84;5043391;28;20436;-63
2022/05/17 06:54:26;;;;;;;10.82;3.00;;;;;;;15.91;100.00;102060.41;5033058;28;20025;-62
2022/05/17 06:56:52;;;;;;;10.70;2.70;;;;;;;15.93;100.00;102050.50;5031338;28;20040;-62
2022/05/17 06:59:18;;;;;;;10.70;2.65;;;;;;;15.89;100.00;102059.59;5046573;28;20029;-63
2022/05/17 07:01:44;;;;;;;11.65;3.03;;;;;;;15.81;100.00;102051.06;5048696;28;20029;-62
2022/05/17 07:04:09;;;;;;;6.68;2.70;;;;;;;15.90;100.00;102061.34;5050865;28;20060;-62
2022/05/17 07:06:35;;;;;;;9.80;2.80;;;;;;;15.95;100.00;102058.47;5045224;28;20030;-63
2022/05/17 07:09:00;;;;;;;9.05;2.95;;;;;;;16.02;100.00;102055.41;5030743;28;20029;-62
2022/05/17 07:14:10;;;;;;;10.00;3.08;;;;;;;16.32;100.00;102065.53;5040990;28;20117;-62
2022/05/17 07:16:36;;;;;;;11.63;3.78;;;;;;;16.66;100.00;102079.00;5051126;28;20480;-62
2022/05/17 07:19:01;;;;;;;10.32;3.10;;;;;;;17.04;98.59;102061.00;5050675;28;20029;-62
2022/05/17 07:21:26;;;;;;;9.32;3.03;;;;;;;17.06;98.03;102068.97;5029608;28;20508;-63
2022/05/17 07:23:52;;;;;;;8.27;3.25;;;;;;;17.08;98.78;102072.41;5033767;28;20029;-62
2022/05/17 07:26:17;;;;;;;7.97;2.90;;;;;;;17.24;100.00;102068.91;5030916;28;20033;-62
2022/05/17 07:28:46;;;;;;;8.82;3.15;;;;;;;17.45;100.00;102072.25;5031376;28;20049;-62
2022/05/17 07:31:12;;;;;;;5.22;2.47;;;;;;;17.69;97.39;102078.09;5035817;28;20032;-62
2022/05/17 07:33:38;;;;;;;7.88;2.78;;;;;;;17.85;96.74;102081.63;5035172;28;20528;-63
2022/05/17 07:36:08;;;;;;;6.47;2.72;;;;;;;18.03;94.61;102078.91;5047373;28;20053;-63
2022/05/17 07:38:35;;;;;;;6.18;2.40;;;;;;;18.01;94.97;102078.97;5038666;28;20029;-63
2022/05/17 07:41:01;;;;;;;8.52;3.08;;;;;;;18.00;96.14;102090.66;5038554;28;20033;-63
2022/05/17 07:43:26;;;;;;;5.38;2.60;;;;;;;18.03;98.47;102084.28;5048289;28;20045;-63
2022/05/17 07:45:51;;;;;;;8.85;2.80;;;;;;;18.04;94.66;102079.78;5050629;28;20032;-63
2022/05/17 07:48:22;;;;;;;4.65;2.63;;;;;;;18.20;96.90;102082.44;5050440;28;20120;-63
2022/05/17 07:50:49;;;;;;;6.35;2.55;;;;;;;18.29;95.36;102088.13;5050289;28;20104;-63
2022/05/17 07:53:16;;;;;;;7.05;2.88;;;;;;;18.42;93.99;102092.78;5049020;28;20033;-64
2022/05/17 07:55:43;;;;;;;5.57;2.60;;;;;;;18.34;93.57;102090.56;5049424;28;20523;-62
2022/05/17 07:58:09;;;;;;;6.47;2.72;;;;;;;18.39;93.42;102099.19;5049212;28;20032;-63
2022/05/17 08:00:35;;;;;;;8.20;2.90;;;;;;;18.54;93.85;102100.09;5049602;28;20021;-63
2022/05/17 08:03:01;;;;;;;6.95;2.85;;;;;;;18.78;93.32;102099.63;5052696;28;20033;-64
2022/05/17 08:05:28;;;;;;;5.93;2.63;;;;;;;19.04;89.44;102092.72;5054389;28;20549;-62
2022/05/17 08:07:53;;;;;;;5.63;2.70;;;;;;;19.15;92.07;102102.81;5052621;28;20036;-63
2022/05/17 08:10:20;;;;;;;5.68;2.60;;;;;;;19.41;92.57;102105.69;5052629;28;20041;-64
2022/05/17 08:12:46;;;;;;;5.63;2.45;;;;;;;19.79;90.58;102107.78;5053077;28;20025;-62
2022/05/17 08:15:13;;;;;;;10.48;2.78;;;;;;;19.89;85.71;102110.78;5053665;28;20131;-62
2022/05/17 08:17:38;;;;;;;6.47;2.47;;;;;;;20.06;86.28;102107.00;5054285;28;20037;-62
2022/05/17 08:20:09;;;;;;;5.53;2.75;;;;;;;20.22;83.44;102104.19;5028440;28;20464;-63
2022/05/17 08:22:44;;;;;;;;;;;;;;;20.31;84.67;102098.19;5040865;28;20512;-63
2022/05/17 08:27:58;;;;;;;6.20;2.63;;;;;;;20.63;84.81;102096.03;5046644;28;20506;-63
2022/05/17 08:30:25;;;;;;;6.13;2.22;;;;;;;20.79;81.93;102093.19;5053592;28;20032;-64
2022/05/17 08:33:17;;;;;;;5.38;2.20;;;;;;;20.98;83.26;102080.31;5051013;28;20094;-64
2022/05/17 08:35:54;;;;;;;5.32;2.50;;;;;;;21.20;81.04;102083.22;5043707;28;20032;-63
2022/05/17 08:38:27;;;;;;;6.07;2.60;;;;;;;21.33;78.99;102088.59;5051086;28;20020;-63
2022/05/17 08:41:13;;;;;;;5.50;2.35;;;;;;;21.40;80.22;102089.03;5049691;28;20029;-64
2022/05/17 08:43:50;;;;;;;6.10;2.55;;;;;;;21.64;79.35;102085.56;5052679;28;20109;-64
2022/05/17 08:46:23;;;;;;;4.97;2.20;;;;;;;21.93;76.45;102081.63;5056155;28;20544;-64
2022/05/17 08:49:13;;;;;;;6.60;2.47;;;;;;;22.36;73.67;102082.97;5065028;28;20037;-63
2022/05/17 08:51:39;;;;;;;4.13;2.20;;;;;;;22.70;73.77;102085.81;5063173;28;20032;-64
2022/05/17 08:54:08;;;;;;;5.20;2.42;;;;;;;22.86;74.54;102092.72;5063084;28;20017;-64
2022/05/17 08:56:38;;;;;;;4.82;2.22;;;;;;;22.70;73.60;102087.66;5065731;28;20029;-64
2022/05/17 08:59:05;;;;;;;5.32;2.38;;;;;;;22.77;73.57;102096.13;5062040;28;20051;-64
2022/05/17 09:02:27;;;;;;;7.85;2.53;;;;;;;22.82;71.98;102091.25;5064694;28;20029;-64
2022/05/17 09:05:07;;;;;;;6.80;2.40;;;;;;;22.50;73.33;102086.47;5050915;28;20058;-64
2022/05/17 09:08:19;;;;;;;4.30;2.27;;;;;;;22.22;75.21;102086.66;5056789;28;20179;-65
2022/05/17 09:10:50;;;;;;;5.15;2.40;;;;;;;22.48;74.24;102083.00;5037158;28;20128;-64
2022/05/17 09:13:23;;;;;;;5.85;2.42;;;;;;;22.91;71.54;102079.72;5051269;28;20025;-65
2022/05/17 09:15:51;;;;;;;6.82;2.60;;;;;;;24.03;69.03;102079.91;5060618;28;20040;-65
2022/05/17 09:18:19;;;;;;;6.32;2.90;;;;;;;24.82;66.57;102071.47;5042819;28;20492;-64
2022/05/17 09:20:45;;;;;;;6.95;2.58;;;;;;;25.14;63.07;102077.75;5032571;28;20033;-64
2022/05/17 09:23:11;;;;;;;8.27;2.83;;;;;;;25.03;62.76;102070.56;5037605;28;20102;-63
2022/05/17 09:25:58;;;;;;;7.03;2.60;;;;;;;24.99;63.81;102075.41;5032278;28;20028;-63
2022/05/17 09:28:51;;;;;;;6.63;2.80;;;;;;;25.15;62.41;102074.91;5030809;28;20537;-64
2022/05/17 09:31:23;;;;;;;4.85;2.72;;;;;;;25.20;61.62;102082.63;5043402;28;20057;-63
2022/05/17 09:33:50;;;;;;;5.15;2.53;;;;;;;25.06;61.39;102086.56;5047693;28;20033;-63
2022/05/17 09:36:25;;;;;;;7.05;2.67;;;;;;;25.41;59.20;102077.22;5055959;28;20404;-63
2022/05/17 09:38:52;;;;;;;5.03;2.50;;;;;;;26.13;56.92;102066.28;5068731;28;20488;-63
2022/05/17 09:41:28;;;;;;;5.65;2.33;;;;;;;26.44;54.64;102072.44;5062564;28;20488;-63
2022/05/17 09:44:08;;;;;;;8.15;2.78;;;;;;;27.36;50.78;102080.13;5048880;28;20053;-63
2022/05/17 09:46:47;;;;;;;8.68;3.20;;;;;;;27.95;49.30;102081.53;5049217;28;20024;-63
2022/05/17 09:54:51;;;;;;;7.05;2.20;;;;;;;28.02;46.91;102080.94;5041825;28;20419;-63
2022/05/17 09:57:25;;;;;;;5.35;3.10;;;;;;;28.33;43.21;102067.84;5050427;28;20527;-63
2022/05/17 09:59:59;;;;;;;8.35;2.80;;;;;;;28.15;45.81;102066.97;5050863;28;20029;-65
2022/05/17 10:02:32;;;;;;;7.40;2.97;;;;;;;28.18;47.21;102072.97;5050774;28;20037;-64
2022/05/17 10:04:58;;;;;;;6.65;2.92;;;;;;;27.46;46.18;102061.94;5045434;28;20045;-63
2022/05/17 10:07:28;;;;;;;6.72;2.85;;;;;;;26.75;47.82;102060.56;5032063;28;20496;-64
2022/05/17 10:09:53;;;;;;;6.00;2.67;;;;;;;26.27;49.05;102065.00;5040941;28;20090;-64
2022/05/17 10:12:18;;;;;;;7.35;2.60;;;;;;;25.54;50.74;102060.72;5062175;28;20021;-64
2022/05/17 10:14:49;;;;;;;5.30;2.37;;;;;;;24.95;54.22;102056.81;5051847;28;20361;-64
2022/05/17 10:17:39;;;;;;;6.00;2.45;;;;;;;25.33;53.18;102058.91;5033009;28;20276;-64
2022/05/17 10:20:14;;;;;;;6.63;2.28;;;;;;;26.23;48.35;102060.84;5050695;28;20487;-64
2022/05/17 10:23:00;;;;;;;6.13;2.53;;;;;;;26.09;48.67;102051.25;5049953;28;20029;-64
2022/05/17 10:25:43;;;;;;;4.55;2.17;;;;;;;25.77;49.42;102052.31;5051080;28;20380;-64
2022/05/17 10:28:29;;;;;;;5.35;2.25;;;;;;;25.48;49.17;102048.53;5051657;28;20025;-64
2022/05/17 10:31:01;;;;;;;8.60;3.17;;;;;;;25.15;49.73;102042.38;5042643;28;20037;-63
2022/05/17 10:33:32;;;;;;;7.25;2.80;;;;;;;25.22;51.55;102044.53;5049786;28;20136;-63
2022/05/17 10:36:10;;;;;;;7.65;3.05;;;;;;;26.08;48.60;102038.72;5050252;28;20507;-64
2022/05/17 10:38:43;;;;;;;6.22;2.50;;;;;;;26.57;47.12;102038.69;5050317;28;20025;-63
2022/05/17 10:41:12;;;;;;;8.30;2.80;;;;;;;27.03;47.21;102036.19;5051427;28;20119;-63
2022/05/17 10:43:44;;;;;;;7.50;3.27;;;;;;;27.89;45.02;102035.03;5048074;28;20053;-64
2022/05/17 10:46:17;;;;;;;10.20;2.90;;;;;;;27.89;43.31;102037.75;5034902;28;20033;-64
2022/05/17 10:48:58;;;;;;;7.68;3.20;;;;;;;27.38;44.73;102030.03;5031784;28;20065;-64
2022/05/17 10:51:34;;;;;;;5.63;3.15;;;;;;;27.89;44.04;102029.59;5030429;28;20442;-64
2022/05/17 10:54:12;;;;;;;7.40;3.72;;;;;;;28.73;41.83;102025.59;5041568;28;20035;-64
2022/05/17 10:56:41;;;;;;;9.68;3.92;;;;;;;29.16;40.63;102013.91;5048379;28;20139;-63
2022/05/17 10:59:26;;;;;;;7.35;3.72;;;;;;;29.25;40.50;102024.69;5041972;28;20029;-63
2022/05/17 11:02:01;;;;;;;7.95;4.32;;;;;;;28.56;41.89;102012.84;5037720;28;20044;-64
2022/05/17 11:05:01;;;;;;;8.32;4.15;;;;;;;28.60;42.90;102017.81;5046183;28;20858;-62
2022/05/17 11:07:58;;;;;;;9.98;4.18;;;;;;;28.85;41.18;102009.84;5055187;28;20080;-62
2022/05/17 11:10:27;;;;;;;7.47;4.55;;;;;;;29.30;40.17;102012.44;5049672;28;20051;-63
2022/05/17 11:13:03;;;;;;;11.77;4.55;;;;;;;29.29;40.82;102008.88;5051127;28;20464;-63
2022/05/17 11:15:35;;;;;;;7.20;4.38;;;;;;;29.43;40.24;102005.50;5050388;28;20020;-63
2022/05/17 11:18:19;;;;;;;12.27;4.40;;;;;;;29.81;40.94;102006.97;5030119;28;20565;-63
2022/05/17 11:20:52;;;;;;;8.45;4.80;;;;;;;29.96;40.85;102005.31;5030231;28;20104;-62
2022/05/17 11:23:42;;;;;;;8.07;3.80;;;;;;;30.48;39.19;101998.69;5030573;28;20026;-63
2022/05/17 11:26:35;;;;;;;8.43;4.47;;;;;;;31.02;36.95;101981.63;5048056;28;20024;-63
2022/05/17 11:29:25;;;;;;;9.55;5.18;;;;;;;31.17;37.89;101992.72;5050099;28;20537;-63
2022/05/17 11:32:14;;;;;;;7.88;4.43;;;;;;;31.14;37.63;101990.34;5050824;28;20021;-62
2022/05/17 11:34:44;;;;;;;10.52;5.80;;;;;;;30.76;36.81;101981.03;5051385;28;20532;-62
2022/05/17 11:37:32;;;;;;;12.85;5.13;;;;;;;30.78;37.28;101987.19;5054605;28;20029;-63
2022/05/17 11:40:00;;;;;;;9.68;5.85;;;;;;;30.73;36.98;101979.50;5051449;28;20428;-63
2022/05/17 11:42:28;;;;;;;9.00;5.07;;;;;;;30.54;38.30;101976.13;5067477;28;20530;-63